JAL2375 RJOO-RJFU
Flight info
| Callsign | JAL2375 |
|---|---|
| Flight time | 1h 1m |
| Altitude | 40000 |
| Route | TIGER SUMAR AYAME SETOH SOUJA Y281 UKELI Y204 OHGIE |
| Aircraft | A359/H-SDE2E3GHIJ3J4J5LM1ORWXY/LB1D1 |
Departure
| Time | 2026-05-04 10:30 |
|---|---|
| Airport | Osaka Itami International Airport (RJOO) |
Arrival
| Time | 2026-05-04 11:31 |
|---|---|
| Airport | Nagasaki Airport (RJFU) |
| Time | Latitude | Longitude | Altitude | Speed | Heading |
|---|---|---|---|---|---|
| 2026-05-04 10:10 | 34.79014 | 135.44025 | 56 ft | 0 kts | 25° |
| 2026-05-04 10:19 | 34.79012 | 135.44025 | 56 ft | 2 kts | 25° |
| 2026-05-04 10:20 | 34.78989 | 135.44011 | 56 ft | 4 kts | 25° |
| 2026-05-04 10:20 | 34.78967 | 135.43998 | 48 ft | 2 kts | 25° |
| 2026-05-04 10:20 | 34.78946 | 135.43985 | 48 ft | 4 kts | 37° |
| 2026-05-04 10:20 | 34.78926 | 135.43963 | 48 ft | 4 kts | 53° |
| 2026-05-04 10:21 | 34.78912 | 135.43936 | 48 ft | 3 kts | 66° |
| 2026-05-04 10:21 | 34.78910 | 135.43931 | 48 ft | 0 kts | 66° |
| 2026-05-04 10:25 | 34.78321 | 135.44335 | 50 ft | 20 kts | 180° |
| 2026-05-04 10:25 | 34.78233 | 135.44336 | 50 ft | 12 kts | 176° |
| 2026-05-04 10:25 | 34.78152 | 135.44375 | 48 ft | 14 kts | 146° |
| 2026-05-04 10:25 | 34.78076 | 135.44456 | 50 ft | 15 kts | 131° |
| 2026-05-04 10:26 | 34.77998 | 135.44558 | 50 ft | 18 kts | 134° |
| 2026-05-04 10:26 | 34.77898 | 135.44675 | 55 ft | 22 kts | 136° |
| 2026-05-04 10:26 | 34.77781 | 135.44812 | 48 ft | 25 kts | 136° |
| 2026-05-04 10:26 | 34.77654 | 135.44967 | 52 ft | 28 kts | 134° |
| 2026-05-04 10:27 | 34.77510 | 135.45142 | 52 ft | 31 kts | 135° |
| 2026-05-04 10:27 | 34.77394 | 135.45271 | 52 ft | 20 kts | 146° |
| 2026-05-04 10:27 | 34.77269 | 135.45269 | 50 ft | 20 kts | 224° |
| 2026-05-04 10:27 | 34.77232 | 135.45185 | 49 ft | 8 kts | 286° |
| 2026-05-04 10:28 | 34.77269 | 135.45127 | 49 ft | 8 kts | 328° |
| 2026-05-04 10:28 | 34.77272 | 135.45124 | 50 ft | 0 kts | 322° |
| 2026-05-04 10:28 | 34.77283 | 135.45109 | 51 ft | 12 kts | 313° |
| 2026-05-04 10:29 | 34.77510 | 135.44835 | 48 ft | 87 kts | 316° |
| 2026-05-04 10:29 | 34.78109 | 135.44107 | 63 ft | 153 kts | 316° |
| 2026-05-04 10:29 | 34.78371 | 135.43796 | 236 ft | 161 kts | 317° |
| 2026-05-04 10:29 | 34.79032 | 135.43028 | 569 ft | 187 kts | 316° |
| 2026-05-04 10:30 | 34.79976 | 135.41753 | 770 ft | 221 kts | 298° |
| 2026-05-04 10:30 | 34.80183 | 135.39824 | 807 ft | 246 kts | 260° |
| 2026-05-04 10:30 | 34.79255 | 135.38038 | 1447 ft | 260 kts | 220° |
| 2026-05-04 10:30 | 34.77597 | 135.37248 | 2384 ft | 270 kts | 188° |
| 2026-05-04 10:31 | 34.75688 | 135.37349 | 3143 ft | 276 kts | 179° |
| 2026-05-04 10:31 | 34.73769 | 135.37392 | 3904 ft | 277 kts | 185° |
| 2026-05-04 10:32 | 34.66309 | 135.29889 | 8582 ft | 255 kts | 267° |
| 2026-05-04 10:33 | 34.66248 | 135.27737 | 9346 ft | 255 kts | 276° |
| 2026-05-04 10:33 | 34.66473 | 135.25604 | 10123 ft | 255 kts | 282° |
| 2026-05-04 10:33 | 34.66860 | 135.23452 | 10549 ft | 268 kts | 284° |
| 2026-05-04 10:33 | 34.67295 | 135.21183 | 10827 ft | 284 kts | 283° |
| 2026-05-04 10:34 | 34.67752 | 135.18783 | 11131 ft | 298 kts | 283° |
| 2026-05-04 10:34 | 34.68225 | 135.16281 | 11440 ft | 310 kts | 283° |
| 2026-05-04 10:34 | 34.68719 | 135.13732 | 11919 ft | 315 kts | 283° |
| 2026-05-04 10:34 | 34.69222 | 135.11136 | 12453 ft | 318 kts | 283° |
| 2026-05-04 10:35 | 34.69729 | 135.08516 | 13022 ft | 319 kts | 283° |
| 2026-05-04 10:35 | 34.70234 | 135.05887 | 13583 ft | 320 kts | 282° |
| 2026-05-04 10:35 | 34.70550 | 135.03281 | 14043 ft | 322 kts | 274° |
| 2026-05-04 10:35 | 34.70439 | 135.00546 | 14485 ft | 325 kts | 264° |
| 2026-05-04 10:36 | 34.70110 | 134.97969 | 14844 ft | 330 kts | 262° |
| 2026-05-04 10:36 | 34.69644 | 134.95221 | 15245 ft | 334 kts | 260° |
| 2026-05-04 10:36 | 34.69116 | 134.92474 | 15752 ft | 334 kts | 259° |
| 2026-05-04 10:36 | 34.68574 | 134.89765 | 16237 ft | 335 kts | 259° |
| 2026-05-04 10:37 | 34.68022 | 134.87008 | 16722 ft | 336 kts | 259° |
| 2026-05-04 10:37 | 34.67477 | 134.84245 | 17225 ft | 337 kts | 259° |
| 2026-05-04 10:37 | 34.66940 | 134.81472 | 17689 ft | 338 kts | 259° |
| 2026-05-04 10:37 | 34.66405 | 134.78682 | 18150 ft | 340 kts | 259° |
| 2026-05-04 10:39 | 34.63213 | 134.61896 | 20702 ft | 342 kts | 258° |
| 2026-05-04 10:39 | 34.62674 | 134.59078 | 21082 ft | 343 kts | 258° |
| 2026-05-04 10:39 | 34.62133 | 134.56252 | 21461 ft | 344 kts | 258° |
| 2026-05-04 10:40 | 34.61590 | 134.53420 | 21874 ft | 344 kts | 257° |
| 2026-05-04 10:40 | 34.61046 | 134.50589 | 22264 ft | 345 kts | 257° |
| 2026-05-04 10:40 | 34.60500 | 134.47747 | 22660 ft | 346 kts | 257° |
| 2026-05-04 10:40 | 34.59954 | 134.44908 | 23012 ft | 346 kts | 257° |
| 2026-05-04 10:41 | 34.59406 | 134.42052 | 23394 ft | 347 kts | 257° |
| 2026-05-04 10:41 | 34.58862 | 134.39230 | 23691 ft | 350 kts | 257° |
| 2026-05-04 10:41 | 34.58305 | 134.36354 | 23987 ft | 350 kts | 257° |
| 2026-05-04 10:41 | 34.57747 | 134.33476 | 24312 ft | 350 kts | 256° |
| 2026-05-04 10:42 | 34.57188 | 134.30596 | 24653 ft | 351 kts | 256° |
| 2026-05-04 10:42 | 34.56629 | 134.27720 | 24986 ft | 351 kts | 256° |
| 2026-05-04 10:42 | 34.56069 | 134.24837 | 25321 ft | 351 kts | 256° |
| 2026-05-04 10:42 | 34.55507 | 134.21951 | 25686 ft | 351 kts | 256° |
| 2026-05-04 10:43 | 34.54966 | 134.19106 | 26058 ft | 351 kts | 257° |
| 2026-05-04 10:44 | 34.57528 | 133.98069 | 28509 ft | 370 kts | 277° |
| 2026-05-04 10:45 | 34.58193 | 133.95090 | 28884 ft | 371 kts | 277° |
| 2026-05-04 10:45 | 34.58858 | 133.92061 | 29229 ft | 373 kts | 276° |
| 2026-05-04 10:45 | 34.59521 | 133.89006 | 29585 ft | 375 kts | 276° |
| 2026-05-04 10:45 | 34.60180 | 133.85947 | 29953 ft | 376 kts | 276° |
| 2026-05-04 10:46 | 34.60839 | 133.82872 | 30329 ft | 377 kts | 276° |
| 2026-05-04 10:46 | 34.61499 | 133.79772 | 30535 ft | 382 kts | 276° |
| 2026-05-04 10:46 | 34.62029 | 133.76621 | 30807 ft | 379 kts | 270° |
| 2026-05-04 10:46 | 34.62242 | 133.73450 | 31148 ft | 375 kts | 264° |
| 2026-05-04 10:47 | 34.62105 | 133.70312 | 31469 ft | 372 kts | 258° |
| 2026-05-04 10:47 | 34.61736 | 133.67246 | 31766 ft | 372 kts | 256° |
| 2026-05-04 10:47 | 34.61287 | 133.64143 | 32009 ft | 374 kts | 255° |
| 2026-05-04 10:47 | 34.60796 | 133.61041 | 32278 ft | 375 kts | 255° |
| 2026-05-04 10:49 | 34.57332 | 133.39140 | 34602 ft | 379 kts | 255° |
| 2026-05-04 10:49 | 34.56841 | 133.36009 | 34976 ft | 378 kts | 255° |
| 2026-05-04 10:50 | 34.56351 | 133.32884 | 35371 ft | 376 kts | 255° |
| 2026-05-04 10:51 | 34.52946 | 133.11370 | 37913 ft | 369 kts | 255° |
| 2026-05-04 10:52 | 34.52461 | 133.08319 | 38299 ft | 368 kts | 255° |
| 2026-05-04 10:52 | 34.51975 | 133.05271 | 38661 ft | 367 kts | 255° |
| 2026-05-04 10:52 | 34.51491 | 133.02237 | 38997 ft | 367 kts | 255° |
| 2026-05-04 10:54 | 34.47981 | 132.80458 | 40036 ft | 379 kts | 256° |
| 2026-05-04 10:54 | 34.47474 | 132.77323 | 40046 ft | 379 kts | 256° |
| 2026-05-04 10:56 | 34.41129 | 132.53210 | 40046 ft | 377 kts | 250° |
| 2026-05-04 10:57 | 34.39506 | 132.47412 | 40046 ft | 378 kts | 251° |
| 2026-05-04 10:57 | 34.37923 | 132.41756 | 40047 ft | 378 kts | 250° |
| 2026-05-04 10:58 | 34.36219 | 132.35682 | 40047 ft | 377 kts | 251° |
| 2026-05-04 10:58 | 34.34530 | 132.29681 | 40046 ft | 377 kts | 251° |
| 2026-05-04 10:59 | 34.32887 | 132.23857 | 40046 ft | 376 kts | 251° |
| 2026-05-04 10:59 | 34.31193 | 132.17866 | 40055 ft | 377 kts | 251° |
| 2026-05-04 11:00 | 34.29500 | 132.11892 | 40036 ft | 378 kts | 250° |
| 2026-05-04 11:02 | 34.22669 | 131.87917 | 40051 ft | 379 kts | 250° |
| 2026-05-04 11:05 | 34.09740 | 131.43039 | 37492 ft | 382 kts | 250° |
| 2026-05-04 11:06 | 34.08859 | 131.40013 | 37228 ft | 383 kts | 250° |
| 2026-05-04 11:06 | 34.07977 | 131.36981 | 36979 ft | 383 kts | 250° |
| 2026-05-04 11:06 | 34.07091 | 131.33947 | 36750 ft | 384 kts | 250° |
| 2026-05-04 11:06 | 34.06067 | 131.30977 | 36488 ft | 384 kts | 245° |
| 2026-05-04 11:08 | 33.97725 | 131.10691 | 34777 ft | 389 kts | 244° |
| 2026-05-04 11:10 | 33.89182 | 130.90196 | 33032 ft | 395 kts | 244° |
| 2026-05-04 11:12 | 33.80471 | 130.69406 | 28501 ft | 397 kts | 244° |
| 2026-05-04 11:12 | 33.79237 | 130.66477 | 27782 ft | 394 kts | 244° |
| 2026-05-04 11:12 | 33.78003 | 130.63550 | 27044 ft | 391 kts | 244° |
| 2026-05-04 11:12 | 33.76790 | 130.60677 | 26327 ft | 388 kts | 244° |
| 2026-05-04 11:13 | 33.75563 | 130.57770 | 25557 ft | 387 kts | 245° |
| 2026-05-04 11:13 | 33.74346 | 130.54889 | 24873 ft | 385 kts | 246° |
| 2026-05-04 11:13 | 33.73137 | 130.52024 | 24165 ft | 384 kts | 246° |
| 2026-05-04 11:13 | 33.71928 | 130.49159 | 23399 ft | 384 kts | 246° |
| 2026-05-04 11:14 | 33.70722 | 130.46304 | 22621 ft | 382 kts | 246° |
| 2026-05-04 11:14 | 33.69531 | 130.43509 | 21897 ft | 380 kts | 245° |
| 2026-05-04 11:14 | 33.68094 | 130.40846 | 21185 ft | 381 kts | 236° |
| 2026-05-04 11:16 | 33.51786 | 130.29236 | 15652 ft | 392 kts | 212° |
| 2026-05-04 11:16 | 33.49396 | 130.27769 | 14859 ft | 391 kts | 212° |
| 2026-05-04 11:16 | 33.46969 | 130.26287 | 14043 ft | 391 kts | 212° |
| 2026-05-04 11:17 | 33.44547 | 130.24806 | 13190 ft | 390 kts | 212° |
| 2026-05-04 11:17 | 33.42136 | 130.23333 | 12358 ft | 388 kts | 212° |
| 2026-05-04 11:19 | 33.26304 | 130.17370 | 10648 ft | 305 kts | 187° |
| 2026-05-04 11:19 | 33.24177 | 130.17243 | 10462 ft | 306 kts | 187° |
| 2026-05-04 11:19 | 33.22089 | 130.17116 | 10289 ft | 295 kts | 187° |
| 2026-05-04 11:19 | 33.20065 | 130.16996 | 10019 ft | 289 kts | 187° |
| 2026-05-04 11:20 | 33.18038 | 130.16866 | 9696 ft | 297 kts | 187° |
| 2026-05-04 11:20 | 33.15954 | 130.16728 | 9393 ft | 301 kts | 186° |
| 2026-05-04 11:20 | 33.13869 | 130.16595 | 9028 ft | 300 kts | 186° |
| 2026-05-04 11:20 | 33.11794 | 130.16464 | 8682 ft | 298 kts | 186° |
| 2026-05-04 11:22 | 32.98633 | 130.15636 | 6540 ft | 287 kts | 185° |
| 2026-05-04 11:22 | 32.96644 | 130.15508 | 6204 ft | 285 kts | 185° |
| 2026-05-04 11:23 | 32.94669 | 130.15381 | 5884 ft | 284 kts | 185° |
| 2026-05-04 11:23 | 32.92724 | 130.15260 | 5556 ft | 283 kts | 185° |
| 2026-05-04 11:24 | 32.81488 | 130.14527 | 4081 ft | 256 kts | 189° |
| 2026-05-04 11:25 | 32.79837 | 130.13841 | 3814 ft | 250 kts | 218° |
| 2026-05-04 11:25 | 32.78588 | 130.12474 | 3642 ft | 238 kts | 232° |
| 2026-05-04 11:25 | 32.77703 | 130.10936 | 3502 ft | 221 kts | 252° |
| 2026-05-04 11:26 | 32.77850 | 130.07721 | 3394 ft | 183 kts | 291° |
| 2026-05-04 11:27 | 32.82837 | 130.00826 | 2098 ft | 144 kts | 316° |
| 2026-05-04 11:28 | 32.83576 | 130.00036 | 1883 ft | 141 kts | 316° |
| 2026-05-04 11:28 | 32.84295 | 129.99268 | 1708 ft | 138 kts | 317° |
| 2026-05-04 11:28 | 32.85001 | 129.98512 | 1513 ft | 135 kts | 317° |
| 2026-05-04 11:28 | 32.85677 | 129.97790 | 1333 ft | 127 kts | 316° |
| 2026-05-04 11:29 | 32.86314 | 129.97109 | 1176 ft | 121 kts | 317° |
| 2026-05-04 11:29 | 32.86939 | 129.96440 | 1022 ft | 121 kts | 317° |
| 2026-05-04 11:29 | 32.87564 | 129.95770 | 865 ft | 121 kts | 316° |
| 2026-05-04 11:29 | 32.88062 | 129.95238 | 738 ft | 121 kts | 316° |
| 2026-05-04 11:31 | 32.91907 | 129.91125 | 24 ft | 32 kts | 326° |
| 2026-05-04 11:33 | 32.91509 | 129.91820 | 27 ft | 29 kts | 138° |
| 2026-05-04 11:33 | 32.91381 | 129.91957 | 26 ft | 15 kts | 138° |
| 2026-05-04 11:33 | 32.91311 | 129.92034 | 26 ft | 10 kts | 131° |
| 2026-05-04 11:34 | 32.91306 | 129.92075 | 27 ft | 3 kts | 77° |
| 2026-05-04 11:34 | 32.91317 | 129.92102 | 29 ft | 5 kts | 59° |
| 2026-05-04 11:34 | 32.91344 | 129.92144 | 28 ft | 8 kts | 48° |
| 2026-05-04 11:34 | 32.91365 | 129.92172 | 26 ft | 1 kts | 47° |
| 2026-05-04 11:35 | 32.91367 | 129.92174 | 27 ft | 0 kts | 47° |
| 2026-05-04 11:35 | 32.91370 | 129.92179 | 27 ft | 0 kts | 47° |